createdAt,value
2023-10-21T00:01:08.848Z,98447.13
2023-10-21T00:03:35.481Z,98454.28
2023-10-21T00:06:02.115Z,98455.38
2023-10-21T00:08:29.324Z,98448.84
2023-10-21T00:11:10.625Z,98449.94
2023-10-21T00:13:37.509Z,98449.78
2023-10-21T00:16:04.532Z,98454.31
2023-10-21T00:18:31.317Z,98453.84
2023-10-21T00:20:58.038Z,98461.31
2023-10-21T00:23:24.698Z,98471.44
2023-10-21T00:25:51.525Z,98475.81
2023-10-21T00:28:18.169Z,98477.97
2023-10-21T00:30:47.202Z,98492.28
2023-10-21T00:33:15.291Z,98493.06
2023-10-21T00:35:45.834Z,98497.13
2023-10-21T00:38:13.126Z,98502.09
2023-10-21T00:40:39.896Z,98503.19
2023-10-21T00:43:06.510Z,98505.06
2023-10-21T00:45:33.034Z,98502.09
2023-10-21T00:47:59.626Z,98502.88
2023-10-21T00:50:26.527Z,98511.59
2023-10-21T00:52:53.733Z,98509.72
2023-10-21T00:55:20.362Z,98508.63
2023-10-21T00:57:47.527Z,98512.38
2023-10-21T01:00:14.820Z,98521.41
2023-10-21T01:02:43.511Z,98525.13
2023-10-21T01:05:10.464Z,98531.97
2023-10-21T01:07:36.983Z,98538.03
2023-10-21T01:10:06.781Z,98537.88
2023-10-21T01:12:33.258Z,98545.03
2023-10-21T01:15:00.360Z,98546.47
2023-10-21T01:17:27.053Z,98544.28
2023-10-21T01:19:53.565Z,98546.59
2023-10-21T01:22:20.116Z,98553.44
2023-10-21T01:24:46.592Z,98552.34
2023-10-21T01:27:13.156Z,98561.69
2023-10-21T01:29:39.761Z,98561.06
2023-10-21T01:32:06.859Z,98561.22
2023-10-21T01:34:33.399Z,98569.16
2023-10-21T01:37:00.519Z,98563.41
2023-10-21T01:39:27.079Z,98568.69
2023-10-21T01:41:53.604Z,98571.34
2023-10-21T01:44:20.587Z,98571.34
2023-10-21T01:46:47.094Z,98567.91
2023-10-21T01:49:13.578Z,98566.84
2023-10-21T01:51:40.084Z,98576.31
2023-10-21T01:54:06.773Z,98574.94
2023-10-21T01:56:33.543Z,98577.09
2023-10-21T01:59:00.009Z,98573.69
2023-10-21T02:01:26.524Z,98582.41
2023-10-21T02:03:53.629Z,98588.78
2023-10-21T02:06:20.228Z,98591.72
2023-10-21T02:08:46.854Z,98590.34
2023-10-21T02:11:13.335Z,98588.78
2023-10-21T02:13:39.864Z,98591.88
2023-10-21T02:16:10.634Z,98589.25
2023-10-21T02:18:37.676Z,98594.84
2023-10-21T02:21:07.937Z,98595.94
2023-10-21T02:23:34.861Z,98600.44
2023-10-21T02:26:02.602Z,98612.41
2023-10-21T02:28:29.101Z,98612.72
2023-10-21T02:30:56.306Z,98616.47
2023-10-21T02:33:23.936Z,98624.41
2023-10-21T02:35:54.252Z,98624.72
2023-10-21T02:38:21.000Z,98616.34
2023-10-21T02:40:48.122Z,98624.28
2023-10-21T02:43:14.777Z,98626.91
2023-10-21T02:45:41.443Z,98631.72
2023-10-21T02:48:08.095Z,98639.97
2023-10-21T02:50:34.741Z,98641.38
2023-10-21T02:53:01.324Z,98637.94
2023-10-21T02:55:28.537Z,98645.09
2023-10-21T02:57:55.020Z,98656.47
2023-10-21T03:00:22.625Z,98654.91
2023-10-21T03:02:50.183Z,98654.13
2023-10-21T03:05:17.400Z,98666.56
2023-10-21T03:07:44.683Z,98653.03
2023-10-21T03:10:11.786Z,98656.78
2023-10-21T03:12:38.333Z,98653.03
2023-10-21T03:15:07.838Z,98651.00
2023-10-21T03:17:34.449Z,98655.53
2023-10-21T03:20:01.101Z,98665.78
2023-10-21T03:22:27.575Z,98663.13
2023-10-21T03:24:54.147Z,98666.56
2023-10-21T03:27:21.770Z,98675.91
2023-10-21T03:29:48.427Z,98681.19
2023-10-21T03:32:14.953Z,98684.13
2023-10-21T03:34:41.432Z,98685.53
2023-10-21T03:37:08.722Z,98686.00
2023-10-21T03:39:35.211Z,98686.78
2023-10-21T03:42:01.785Z,98687.09
2023-10-21T03:44:29.798Z,98701.41
2023-10-21T03:46:56.452Z,98701.09
2023-10-21T03:51:58.279Z,98710.28
2023-10-21T03:54:24.862Z,98709.19
2023-10-21T03:56:52.636Z,98707.00
2023-10-21T03:59:19.251Z,98713.56
2023-10-21T04:01:45.717Z,98714.66
2023-10-21T04:04:12.336Z,98724.44
2023-10-21T04:06:38.886Z,98717.59
2023-10-21T04:09:06.013Z,98720.53
2023-10-21T04:11:32.548Z,98729.25
2023-10-21T04:13:59.106Z,98731.91
2023-10-21T04:16:25.833Z,98742.47
2023-10-21T04:18:52.406Z,98734.84
2023-10-21T04:21:20.183Z,98740.13
2023-10-21T04:23:46.696Z,98746.22
2023-10-21T04:26:13.211Z,98749.94
2023-10-21T04:28:39.701Z,98756.00
2023-10-21T04:31:06.213Z,98749.47
2023-10-21T04:33:32.803Z,98761.91
2023-10-21T04:35:59.358Z,98762.69
2023-10-21T04:38:25.952Z,98775.75
2023-10-21T04:40:52.517Z,98774.66
2023-10-21T04:43:19.148Z,98777.78
2023-10-21T04:45:45.668Z,98788.66
2023-10-21T04:48:12.239Z,98787.09
2023-10-21T04:50:38.744Z,98797.69
2023-10-21T04:53:05.275Z,98799.06
2023-10-21T04:55:31.783Z,98803.09
2023-10-21T04:57:58.943Z,98806.81
2023-10-21T05:00:26.004Z,98813.66
2023-10-21T05:02:52.755Z,98813.97
2023-10-21T05:05:19.323Z,98824.53
2023-10-21T05:07:45.792Z,98822.22
2023-10-21T05:10:12.338Z,98824.25
2023-10-21T05:12:39.145Z,98835.31
2023-10-21T05:15:06.361Z,98830.97
2023-10-21T05:17:33.126Z,98849.06
2023-10-21T05:19:59.664Z,98841.59
2023-10-21T05:22:26.156Z,98855.16
2023-10-21T05:24:52.772Z,98857.19
2023-10-21T05:27:19.519Z,98864.19
2023-10-21T05:29:46.030Z,98864.19
2023-10-21T05:32:12.716Z,98868.72
2023-10-21T05:34:40.678Z,98870.88
2023-10-21T05:37:07.444Z,98880.19
2023-10-21T05:39:34.143Z,98879.41
2023-10-21T05:42:00.707Z,98883.94
2023-10-21T05:44:37.487Z,98886.56
2023-10-21T05:47:12.155Z,98883.94
2023-10-21T05:49:38.635Z,98886.56
2023-10-21T05:52:05.506Z,98892.97
2023-10-21T05:54:32.823Z,98899.66
2023-10-21T05:56:59.353Z,98902.59
2023-10-21T05:59:25.962Z,98909.75
2023-10-21T06:01:52.481Z,98915.81
2023-10-21T06:04:19.040Z,98919.56
2023-10-21T06:06:45.567Z,98927.00
2023-10-21T06:09:12.118Z,98914.88
2023-10-21T06:11:38.632Z,98920.75
2023-10-21T06:14:05.194Z,98932.41
2023-10-21T06:16:31.719Z,98944.69
2023-10-21T06:18:58.331Z,98957.91
2023-10-21T06:21:24.885Z,98958.97
2023-10-21T06:23:51.718Z,98964.47
2023-10-21T06:26:18.249Z,98967.88
2023-10-21T06:28:44.772Z,98972.28
2023-10-21T06:31:12.244Z,98969.81
2023-10-21T06:33:39.102Z,98977.16
2023-10-21T06:36:06.109Z,98983.38
2023-10-21T06:38:32.665Z,98985.78
2023-10-21T06:41:11.216Z,98980.53
2023-10-21T06:43:41.524Z,98991.31
2023-10-21T06:46:08.120Z,98989.91
2023-10-21T06:48:34.953Z,99003.81
2023-10-21T06:51:01.563Z,98996.81
2023-10-21T06:53:28.158Z,98996.19
2023-10-21T06:55:54.681Z,99001.19
2023-10-21T06:58:21.166Z,99003.84
2023-10-21T07:00:48.013Z,99010.22
2023-10-21T07:03:14.653Z,99009.72
2023-10-21T07:05:43.828Z,99011.00
2023-10-21T07:08:10.355Z,99015.97
2023-10-21T07:10:36.888Z,99019.91
2023-10-21T07:13:03.691Z,99022.72
2023-10-21T07:15:30.725Z,99031.31
2023-10-21T07:17:59.052Z,99032.88
2023-10-21T07:20:27.289Z,99036.00
2023-10-21T07:22:55.362Z,99048.63
2023-10-21T07:25:22.360Z,99048.03
2023-10-21T07:27:49.070Z,99050.06
2023-10-21T07:30:17.091Z,99054.00
2023-10-21T07:32:43.974Z,99049.16
2023-10-21T07:35:10.897Z,99061.03
2023-10-21T07:37:38.736Z,99062.75
2023-10-21T07:40:07.241Z,99060.91
2023-10-21T07:42:33.922Z,99067.16
2023-10-21T07:45:00.726Z,99070.28
2023-10-21T07:47:27.561Z,99070.44
2023-10-21T07:49:56.175Z,99079.34
2023-10-21T07:52:24.136Z,99077.50
2023-10-21T07:54:50.974Z,99087.16
2023-10-21T07:57:17.773Z,99087.34
2023-10-21T07:59:45.792Z,99093.13
2023-10-21T08:02:12.536Z,99093.75
2023-10-21T08:04:39.380Z,99102.94
2023-10-21T08:07:06.199Z,99107.94
2023-10-21T08:09:32.815Z,99112.94
2023-10-21T08:11:59.399Z,99117.16
2023-10-21T08:14:28.221Z,99118.41
2023-10-21T08:16:54.811Z,99112.50
2023-10-21T08:19:21.409Z,99123.59
2023-10-21T08:21:47.990Z,99123.88
2023-10-21T08:24:14.578Z,99132.78
2023-10-21T08:26:41.110Z,99136.22
2023-10-21T08:29:07.632Z,99151.84
2023-10-21T08:31:34.549Z,99156.03
2023-10-21T08:34:01.266Z,99157.44
2023-10-21T08:36:27.908Z,99158.34
2023-10-21T08:38:57.386Z,99171.13
2023-10-21T08:41:23.955Z,99176.72
2023-10-21T08:43:50.864Z,99176.91
2023-10-21T08:46:18.926Z,99194.25
2023-10-21T08:48:47.927Z,99194.13
2023-10-21T08:51:19.462Z,99192.13
2023-10-21T08:53:47.920Z,99201.66
2023-10-21T08:56:17.617Z,99199.66
2023-10-21T08:58:44.408Z,99209.34
2023-10-21T09:01:12.412Z,99223.69
2023-10-21T09:03:39.817Z,99222.91
2023-10-21T09:06:08.135Z,99228.81
2023-10-21T09:08:37.709Z,99232.59
2023-10-21T09:11:12.068Z,99222.16
2023-10-21T09:13:41.052Z,99230.78
2023-10-21T09:16:23.056Z,99241.22
2023-10-21T09:19:05.973Z,99233.25
2023-10-21T09:21:39.669Z,99253.41
2023-10-21T09:24:07.626Z,99247.94
2023-10-21T09:26:34.873Z,99255.44
2023-10-21T09:29:19.540Z,99265.88
2023-10-21T09:31:48.164Z,99257.13
2023-10-21T09:34:25.674Z,99262.25
2023-10-21T09:36:54.058Z,99267.72
2023-10-21T09:39:22.911Z,99266.47
2023-10-21T09:41:50.059Z,99269.91
2023-10-21T09:44:17.958Z,99277.06
2023-10-21T09:46:46.064Z,99275.38
2023-10-21T09:49:16.693Z,99291.31
2023-10-21T09:52:08.320Z,99295.53
2023-10-21T09:54:49.181Z,99294.72
2023-10-21T09:57:16.503Z,99296.59
2023-10-21T09:59:47.388Z,99310.34
2023-10-21T10:02:15.939Z,99305.66
2023-10-21T10:04:43.869Z,99313.13
2023-10-21T10:07:22.883Z,99320.31
2023-10-21T10:09:56.569Z,99322.34
2023-10-21T10:12:27.157Z,99326.56
2023-10-21T10:14:58.358Z,99319.38
2023-10-21T10:17:49.704Z,99329.53
2023-10-21T10:20:26.041Z,99330.03
2023-10-21T10:22:59.940Z,99334.28
2023-10-21T10:25:34.507Z,99337.59
2023-10-21T10:28:06.446Z,99333.75
2023-10-21T10:30:33.912Z,99341.28
2023-10-21T10:33:08.490Z,99340.66
2023-10-21T10:36:10.245Z,99335.03
2023-10-21T10:38:46.570Z,99340.22
2023-10-21T10:41:17.080Z,99336.63
2023-10-21T10:43:50.908Z,99345.84
2023-10-21T10:46:20.368Z,99347.91
2023-10-21T10:48:50.049Z,99353.38
2023-10-21T10:51:16.952Z,99345.09
2023-10-21T10:53:49.191Z,99350.28
2023-10-21T10:56:21.744Z,99348.28
2023-10-21T10:58:48.690Z,99358.25
2023-10-21T11:01:22.577Z,99360.13
2023-10-21T11:04:00.694Z,99359.81
2023-10-21T11:06:40.913Z,99358.59
2023-10-21T11:09:21.851Z,99359.69
2023-10-21T11:12:08.860Z,99360.97
2023-10-21T11:14:36.960Z,99371.44
2023-10-21T11:17:05.562Z,99378.50
2023-10-21T11:19:33.114Z,99382.22
2023-10-21T11:21:59.819Z,99389.28
2023-10-21T11:24:27.538Z,99394.28
2023-10-21T11:26:55.033Z,99394.44
2023-10-21T11:29:23.885Z,99386.63
2023-10-21T11:31:50.779Z,99400.38
2023-10-21T11:34:20.703Z,99399.72
2023-10-21T11:36:51.516Z,99406.13
2023-10-21T11:39:20.444Z,99405.66
2023-10-21T11:41:48.407Z,99401.91
2023-10-21T11:44:19.108Z,99394.88
2023-10-21T11:46:45.692Z,99406.94
2023-10-21T11:49:15.680Z,99402.25
2023-10-21T11:51:43.382Z,99410.69
2023-10-21T11:54:11.474Z,99404.25
2023-10-21T11:56:56.574Z,99415.03
2023-10-21T11:59:32.050Z,99411.47
2023-10-21T12:02:18.796Z,99410.38
2023-10-21T12:05:03.607Z,99412.88
2023-10-21T12:08:08.147Z,99414.00
2023-10-21T12:10:53.106Z,99413.09
2023-10-21T12:13:39.918Z,99415.44
2023-10-21T12:16:21.592Z,99409.31
2023-10-21T12:19:07.253Z,99414.16
2023-10-21T12:21:52.555Z,99418.38
2023-10-21T12:24:19.125Z,99415.41
2023-10-21T12:26:57.777Z,99414.16
2023-10-21T12:29:44.850Z,99412.75
2023-10-21T12:32:30.966Z,99417.78
2023-10-21T12:35:32.585Z,99417.78
2023-10-21T12:38:13.987Z,99422.47
2023-10-21T12:40:40.565Z,99419.97
2023-10-21T12:43:17.292Z,99419.69
2023-10-21T12:45:48.396Z,99430.63
2023-10-21T12:48:19.310Z,99427.19
2023-10-21T12:50:55.861Z,99437.19
2023-10-21T12:53:23.076Z,99430.50
2023-10-21T12:55:50.924Z,99437.81
2023-10-21T12:58:17.519Z,99429.50
2023-10-21T13:00:47.251Z,99420.75
2023-10-21T13:03:14.486Z,99425.16
2023-10-21T13:05:44.824Z,99410.31
2023-10-21T13:08:11.311Z,99420.00
2023-10-21T13:10:38.286Z,99423.16
2023-10-21T13:13:07.332Z,99421.09
2023-10-21T13:15:34.060Z,99423.78
2023-10-21T13:18:04.961Z,99423.44
2023-10-21T13:20:32.439Z,99414.69
2023-10-21T13:22:59.093Z,99415.31
2023-10-21T13:25:30.442Z,99418.59
2023-10-21T13:27:59.005Z,99424.84
2023-10-21T13:30:27.324Z,99435.97
2023-10-21T13:32:56.150Z,99422.97
2023-10-21T13:35:24.650Z,99433.94
2023-10-21T13:37:53.586Z,99425.16
2023-10-21T13:40:21.325Z,99436.44
2023-10-21T13:42:54.768Z,99436.44
2023-10-21T13:45:23.306Z,99433.59
2023-10-21T13:47:52.741Z,99431.56
2023-10-21T13:50:24.768Z,99437.50
2023-10-21T13:52:52.457Z,99438.47
2023-10-21T13:55:19.756Z,99430.59
2023-10-21T13:57:47.684Z,99438.41
2023-10-21T14:00:34.401Z,99436.53
2023-10-21T14:03:11.343Z,99435.16
2023-10-21T14:05:42.010Z,99442.03
2023-10-21T14:08:11.528Z,99438.91
2023-10-21T14:10:42.326Z,99441.88
2023-10-21T14:13:16.826Z,99445.44
2023-10-21T14:15:45.723Z,99441.06
2023-10-21T14:18:12.635Z,99446.03
2023-10-21T14:20:41.528Z,99447.91
2023-10-21T14:23:13.479Z,99447.91
2023-10-21T14:25:42.048Z,99465.44
2023-10-21T14:28:14.493Z,99467.31
2023-10-21T14:30:47.584Z,99455.41
2023-10-21T14:33:19.036Z,99463.06
2023-10-21T14:35:47.733Z,99465.88
2023-10-21T14:38:15.691Z,99464.13
2023-10-21T14:40:43.161Z,99465.81
2023-10-21T14:43:11.323Z,99465.34
2023-10-21T14:45:40.607Z,99470.97
2023-10-21T14:48:11.302Z,99481.28
2023-10-21T14:50:39.599Z,99482.06
2023-10-21T14:53:09.528Z,99484.25
2023-10-21T14:55:51.491Z,99495.66
2023-10-21T14:58:23.487Z,99499.72
2023-10-21T15:00:50.510Z,99501.72
2023-10-21T15:03:18.375Z,99507.94
2023-10-21T15:05:45.546Z,99505.44
2023-10-21T15:08:12.224Z,99511.47
2023-10-21T15:10:38.852Z,99508.94
2023-10-21T15:13:05.939Z,99510.66
2023-10-21T15:15:32.837Z,99520.31
2023-10-21T15:18:00.732Z,99515.91
2023-10-21T15:20:29.857Z,99516.63
2023-10-21T15:22:57.476Z,99517.84
2023-10-21T15:25:24.070Z,99516.56
2023-10-21T15:27:53.148Z,99524.44
2023-10-21T15:30:21.912Z,99520.63
2023-10-21T15:32:49.845Z,99528.81
2023-10-21T15:35:16.658Z,99523.16
2023-10-21T15:37:45.113Z,99537.81
2023-10-21T15:40:14.078Z,99527.59
2023-10-21T15:42:44.132Z,99541.44
2023-10-21T15:45:12.116Z,99542.03
2023-10-21T15:47:39.021Z,99539.78
2023-10-21T15:50:06.870Z,99542.25
2023-10-21T15:52:33.594Z,99528.16
2023-10-21T15:55:00.650Z,99529.34
2023-10-21T15:57:27.778Z,99541.13
2023-10-21T15:59:54.837Z,99540.13
2023-10-21T16:02:21.903Z,99537.56
2023-10-21T16:04:48.572Z,99548.97
2023-10-21T16:07:15.780Z,99550.34
2023-10-21T16:09:42.468Z,99544.06
2023-10-21T16:12:09.209Z,99542.50
2023-10-21T16:14:36.546Z,99546.81
2023-10-21T16:17:05.005Z,99551.13
2023-10-21T16:19:32.377Z,99549.84
2023-10-21T16:21:59.026Z,99549.38
2023-10-21T16:24:25.743Z,99556.81
2023-10-21T16:26:52.427Z,99554.66
2023-10-21T16:29:19.560Z,99556.81
2023-10-21T16:31:46.226Z,99554.47
2023-10-21T16:34:12.882Z,99561.91
2023-10-21T16:36:40.477Z,99561.34
2023-10-21T16:39:08.092Z,99564.78
2023-10-21T16:41:34.880Z,99573.50
2023-10-21T16:44:02.374Z,99568.00
2023-10-21T16:46:29.077Z,99565.66
2023-10-21T16:48:55.735Z,99570.66
2023-10-21T16:51:22.385Z,99570.94
2023-10-21T16:53:48.877Z,99577.81
2023-10-21T16:56:15.395Z,99575.16
2023-10-21T16:58:42.186Z,99565.56
2023-10-21T17:01:08.799Z,99582.25
2023-10-21T17:03:39.908Z,99581.66
2023-10-21T17:06:06.697Z,99589.59
2023-10-21T17:08:37.034Z,99594.91
2023-10-21T17:11:04.836Z,99596.75
2023-10-21T17:13:31.584Z,99602.56
2023-10-21T17:15:58.291Z,99597.84
2023-10-21T17:18:24.907Z,99598.13
2023-10-21T17:20:51.530Z,99600.50
2023-10-21T17:23:18.108Z,99597.84
2023-10-21T17:25:46.965Z,99608.44
2023-10-21T17:28:13.684Z,99603.94
2023-10-21T17:30:40.350Z,99613.44
2023-10-21T17:33:06.916Z,99605.78
2023-10-21T17:35:33.425Z,99609.22
2023-10-21T17:38:00.037Z,99607.38
2023-10-21T17:40:26.522Z,99610.50
2023-10-21T17:42:53.638Z,99612.66
2023-10-21T17:45:20.348Z,99606.56
2023-10-21T17:47:46.918Z,99610.81
2023-10-21T17:50:13.568Z,99602.56
2023-10-21T17:52:40.066Z,99609.44
2023-10-21T17:55:06.858Z,99610.22
2023-10-21T17:57:33.703Z,99613.66
2023-10-21T18:00:00.748Z,99617.09
2023-10-21T18:02:29.510Z,99615.22
2023-10-21T18:04:56.160Z,99612.28
2023-10-21T18:07:23.599Z,99614.16
2023-10-21T18:09:53.670Z,99616.50
2023-10-21T18:12:21.710Z,99610.13
2023-10-21T18:14:48.618Z,99612.78
2023-10-21T18:17:16.449Z,99610.13
2023-10-21T18:19:43.074Z,99614.06
2023-10-21T18:22:09.734Z,99607.19
2023-10-21T18:24:38.423Z,99610.31
2023-10-21T18:27:08.537Z,99617.19
2023-10-21T18:29:36.496Z,99612.94
2023-10-21T18:32:03.722Z,99613.75
2023-10-21T18:34:30.378Z,99614.53
2023-10-21T18:36:56.987Z,99600.97
2023-10-21T18:39:23.605Z,99603.34
2023-10-21T18:41:50.178Z,99603.34
2023-10-21T18:44:19.750Z,99604.13
2023-10-21T18:46:46.295Z,99608.63
2023-10-21T18:49:12.879Z,99606.78
2023-10-21T18:51:39.706Z,99613.16
2023-10-21T18:54:07.329Z,99602.56
2023-10-21T18:56:34.783Z,99619.25
2023-10-21T18:59:01.614Z,99611.00
2023-10-21T19:01:29.837Z,99618.66
2023-10-21T19:03:58.494Z,99611.19
2023-10-21T19:06:31.416Z,99613.28
2023-10-21T19:08:59.084Z,99621.13
2023-10-21T19:11:27.097Z,99614.16
2023-10-21T19:13:55.181Z,99614.84
2023-10-21T19:16:22.873Z,99618.28
2023-10-21T19:18:49.989Z,99612.69
2023-10-21T19:21:16.615Z,99619.06
2023-10-21T19:23:43.252Z,99613.47
2023-10-21T19:26:09.753Z,99617.50
2023-10-21T19:28:37.743Z,99618.28
2023-10-21T19:31:10.715Z,99618.28
2023-10-21T19:33:37.363Z,99609.84
2023-10-21T19:36:05.116Z,99613.88
2023-10-21T19:38:31.688Z,99611.50
2023-10-21T19:40:58.186Z,99613.38
2023-10-21T19:43:24.702Z,99611.50
2023-10-21T19:45:51.220Z,99610.44
2023-10-21T19:48:17.960Z,99611.72
2023-10-21T19:50:45.112Z,99606.91
2023-10-21T19:53:12.078Z,99612.19
2023-10-21T19:55:38.576Z,99619.88
2023-10-21T19:58:05.966Z,99623.00
2023-10-21T20:00:32.709Z,99626.75
2023-10-21T20:02:59.366Z,99614.56
2023-10-21T20:05:26.956Z,99622.41
2023-10-21T20:07:53.523Z,99624.34
2023-10-21T20:10:23.242Z,99628.88
2023-10-21T20:12:49.819Z,99623.56
2023-10-21T20:15:16.580Z,99623.88
2023-10-21T20:17:43.231Z,99622.78
2023-10-21T20:20:10.316Z,99620.44
2023-10-21T20:22:36.892Z,99615.31
2023-10-21T20:25:04.069Z,99611.59
2023-10-21T20:27:30.688Z,99614.53
2023-10-21T20:29:57.301Z,99617.69
2023-10-21T20:32:23.810Z,99619.25
2023-10-21T20:34:50.956Z,99618.66
2023-10-21T20:37:17.422Z,99622.41
2023-10-21T20:39:45.757Z,99623.09
2023-10-21T20:42:13.688Z,99617.19
2023-10-21T20:44:40.185Z,99629.16
2023-10-21T20:47:06.983Z,99625.94
2023-10-21T20:49:33.897Z,99618.75
2023-10-21T20:52:04.833Z,99615.50
2023-10-21T20:54:32.508Z,99618.16
2023-10-21T20:56:59.277Z,99623.75
2023-10-21T20:59:26.337Z,99611.59
2023-10-21T21:01:52.918Z,99622.00
2023-10-21T21:04:20.296Z,99612.78
2023-10-21T21:06:47.038Z,99613.34
2023-10-21T21:09:13.728Z,99616.50
2023-10-21T21:11:40.256Z,99619.63
2023-10-21T21:14:06.818Z,99615.72
2023-10-21T21:16:36.597Z,99615.72
2023-10-21T21:19:05.573Z,99617.28
2023-10-21T21:21:32.320Z,99624.47
2023-10-21T21:23:58.971Z,99619.94
2023-10-21T21:26:25.498Z,99622.09
2023-10-21T21:28:51.980Z,99608.84
2023-10-21T21:31:18.461Z,99611.97
2023-10-21T21:33:45.046Z,99611.97
2023-10-21T21:36:12.847Z,99614.34
2023-10-21T21:38:39.426Z,99612.97
2023-10-21T21:41:21.286Z,99610.31
2023-10-21T21:43:51.531Z,99619.25
2023-10-21T21:46:23.143Z,99615.81
2023-10-21T21:48:49.926Z,99612.84
2023-10-21T21:51:16.541Z,99613.34
2023-10-21T21:53:43.116Z,99614.34
2023-10-21T21:56:09.733Z,99611.97
2023-10-21T21:58:36.293Z,99611.69
2023-10-21T22:01:04.957Z,99608.72
2023-10-21T22:03:35.720Z,99611.53
2023-10-21T22:06:02.707Z,99619.81
2023-10-21T22:08:29.798Z,99609.50
2023-10-21T22:10:56.444Z,99608.72
2023-10-21T22:13:23.112Z,99613.25
2023-10-21T22:15:55.192Z,99610.59
2023-10-21T22:18:22.466Z,99614.81
2023-10-21T22:20:49.210Z,99618.25
2023-10-21T22:23:18.407Z,99615.28
2023-10-21T22:25:45.592Z,99618.41
2023-10-21T22:28:15.962Z,99625.19
2023-10-21T22:30:44.617Z,99620.19
2023-10-21T22:33:12.500Z,99620.19
2023-10-21T22:35:39.347Z,99623.13
2023-10-21T22:38:08.385Z,99618.81
2023-10-21T22:40:35.058Z,99620.97
2023-10-21T22:43:02.808Z,99620.97
2023-10-21T22:45:29.962Z,99617.72
2023-10-21T22:47:56.508Z,99629.41
2023-10-21T22:50:23.086Z,99631.28
2023-10-21T22:52:49.706Z,99637.47
2023-10-21T22:55:16.555Z,99630.41
2023-10-21T22:57:44.689Z,99640.56
2023-10-21T23:00:14.675Z,99638.78
2023-10-21T23:02:44.527Z,99644.19
2023-10-21T23:05:11.750Z,99642.72
2023-10-21T23:07:39.110Z,99639.09
2023-10-21T23:10:17.529Z,99637.91
2023-10-21T23:12:44.230Z,99643.81
2023-10-21T23:15:15.752Z,99652.38
2023-10-21T23:17:44.271Z,99646.38
2023-10-21T23:20:12.919Z,99650.50
2023-10-21T23:22:40.411Z,99654.59
2023-10-21T23:25:10.934Z,99644.59
2023-10-21T23:27:41.912Z,99649.97
2023-10-21T23:30:13.761Z,99646.31
2023-10-21T23:32:40.297Z,99653.31
2023-10-21T23:35:09.050Z,99658.69
2023-10-21T23:37:37.833Z,99657.72
2023-10-21T23:40:07.480Z,99659.06
2023-10-21T23:42:35.500Z,99659.66
2023-10-21T23:45:02.193Z,99668.69
2023-10-21T23:47:28.828Z,99667.09
2023-10-21T23:49:55.919Z,99664.94
2023-10-21T23:52:22.587Z,99665.25
2023-10-21T23:54:49.455Z,99675.34
2023-10-21T23:57:17.688Z,99673.47
2023-10-21T23:59:45.360Z,99686.44
